Terminal Aerodrome Forecast
Issued by NWS

Current Version | Previous Version | Text Only | Print | Product List | Glossary Off
Versions: 1 2 3 4 5 6 7 8 9 10 11 12 13 14 15 16

000
FTUS41 KILN 172246 AAD
TAFLUK
TAF AMD
KLUK 172246Z 1723/1818 20010KT P6SM VCSH SCT040 BKN100
     FM180100 22010KT P6SM SCT040 BKN090
     FM180700 24004KT 5SM BR FEW020
     FM181300 26008KT P6SM SCT025
     FM181700 27010G18KT P6SM SCT040=

USA.gov is the U.S. government's official web portal to all federal, state and local government web resources and services.